sensor_id;sensor_type;location;lat;lon;timestamp;P1;durP1;ratioP1;P2;durP2;ratioP2
48554;SDS011;34336;48.270;16.716;2022-09-21T00:03:31;5.15;;;3.45;;
48554;SDS011;34336;48.270;16.716;2022-09-21T00:06:05;4.15;;;3.00;;
48554;SDS011;34336;48.270;16.716;2022-09-21T00:08:33;5.53;;;3.33;;
48554;SDS011;34336;48.270;16.716;2022-09-21T00:11:00;4.25;;;3.00;;
48554;SDS011;34336;48.270;16.716;2022-09-21T00:13:28;5.47;;;3.30;;
48554;SDS011;34336;48.270;16.716;2022-09-21T00:15:55;5.70;;;3.20;;
48554;SDS011;34336;48.270;16.716;2022-09-21T00:18:22;3.90;;;3.40;;
48554;SDS011;34336;48.270;16.716;2022-09-21T00:20:49;6.63;;;3.10;;
48554;SDS011;34336;48.270;16.716;2022-09-21T00:23:18;4.82;;;3.08;;
48554;SDS011;34336;48.270;16.716;2022-09-21T00:25:45;5.10;;;3.25;;
48554;SDS011;34336;48.270;16.716;2022-09-21T00:28:12;7.78;;;3.22;;
48554;SDS011;34336;48.270;16.716;2022-09-21T00:30:38;6.10;;;3.17;;
48554;SDS011;34336;48.270;16.716;2022-09-21T00:33:05;4.00;;;3.20;;
48554;SDS011;34336;48.270;16.716;2022-09-21T00:35:32;5.80;;;2.88;;
48554;SDS011;34336;48.270;16.716;2022-09-21T00:37:59;4.50;;;2.95;;
48554;SDS011;34336;48.270;16.716;2022-09-21T00:40:27;5.88;;;3.20;;
48554;SDS011;34336;48.270;16.716;2022-09-21T00:43:11;4.72;;;3.08;;
48554;SDS011;34336;48.270;16.716;2022-09-21T00:45:39;4.97;;;2.88;;
48554;SDS011;34336;48.270;16.716;2022-09-21T00:48:07;4.57;;;3.13;;
48554;SDS011;34336;48.270;16.716;2022-09-21T00:50:34;6.85;;;3.10;;
48554;SDS011;34336;48.270;16.716;2022-09-21T00:53:04;5.55;;;3.30;;
48554;SDS011;34336;48.270;16.716;2022-09-21T00:55:35;5.47;;;3.20;;
48554;SDS011;34336;48.270;16.716;2022-09-21T00:58:12;3.40;;;2.85;;
48554;SDS011;34336;48.270;16.716;2022-09-21T01:00:44;4.63;;;3.50;;
48554;SDS011;34336;48.270;16.716;2022-09-21T01:03:11;4.05;;;3.17;;
48554;SDS011;34336;48.270;16.716;2022-09-21T01:05:38;3.13;;;2.80;;
48554;SDS011;34336;48.270;16.716;2022-09-21T01:08:06;6.68;;;3.30;;
48554;SDS011;34336;48.270;16.716;2022-09-21T01:10:51;4.53;;;3.33;;
48554;SDS011;34336;48.270;16.716;2022-09-21T01:22:25;4.55;;;2.80;;
48554;SDS011;34336;48.270;16.716;2022-09-21T01:24:48;4.70;;;3.25;;
48554;SDS011;34336;48.270;16.716;2022-09-21T01:30:00;6.30;;;3.17;;
48554;SDS011;34336;48.270;16.716;2022-09-21T01:32:32;4.53;;;3.03;;
48554;SDS011;34336;48.270;16.716;2022-09-21T01:35:42;5.10;;;3.58;;
48554;SDS011;34336;48.270;16.716;2022-09-21T01:38:12;4.57;;;3.70;;
48554;SDS011;34336;48.270;16.716;2022-09-21T01:40:46;4.18;;;2.85;;
48554;SDS011;34336;48.270;16.716;2022-09-21T01:43:19;4.82;;;3.20;;
48554;SDS011;34336;48.270;16.716;2022-09-21T01:45:51;4.43;;;3.17;;
48554;SDS011;34336;48.270;16.716;2022-09-21T01:48:21;5.03;;;3.33;;
48554;SDS011;34336;48.270;16.716;2022-09-21T01:50:51;4.32;;;3.22;;
48554;SDS011;34336;48.270;16.716;2022-09-21T01:53:25;4.47;;;3.20;;
48554;SDS011;34336;48.270;16.716;2022-09-21T01:55:58;4.80;;;3.42;;
48554;SDS011;34336;48.270;16.716;2022-09-21T01:58:33;4.32;;;3.35;;
48554;SDS011;34336;48.270;16.716;2022-09-21T02:01:04;6.40;;;3.33;;
48554;SDS011;34336;48.270;16.716;2022-09-21T02:03:35;4.18;;;3.28;;
48554;SDS011;34336;48.270;16.716;2022-09-21T02:06:05;3.83;;;3.25;;
48554;SDS011;34336;48.270;16.716;2022-09-21T02:08:33;4.78;;;3.30;;
48554;SDS011;34336;48.270;16.716;2022-09-21T02:11:02;5.47;;;3.17;;
48554;SDS011;34336;48.270;16.716;2022-09-21T02:13:35;5.13;;;2.95;;
48554;SDS011;34336;48.270;16.716;2022-09-21T02:21:40;3.45;;;2.80;;
48554;SDS011;34336;48.270;16.716;2022-09-21T02:27:51;4.23;;;2.93;;
48554;SDS011;34336;48.270;16.716;2022-09-21T02:30:22;5.20;;;3.13;;
48554;SDS011;34336;48.270;16.716;2022-09-21T02:35:36;6.03;;;2.88;;
48554;SDS011;34336;48.270;16.716;2022-09-21T02:38:12;4.07;;;3.05;;
48554;SDS011;34336;48.270;16.716;2022-09-21T02:40:50;4.75;;;3.10;;
48554;SDS011;34336;48.270;16.716;2022-09-21T02:43:24;8.23;;;3.85;;
48554;SDS011;34336;48.270;16.716;2022-09-21T02:46:01;4.47;;;3.15;;
48554;SDS011;34336;48.270;16.716;2022-09-21T02:48:36;5.90;;;2.80;;
48554;SDS011;34336;48.270;16.716;2022-09-21T02:51:10;5.00;;;2.80;;
48554;SDS011;34336;48.270;16.716;2022-09-21T02:53:41;4.43;;;3.22;;
48554;SDS011;34336;48.270;16.716;2022-09-21T02:56:10;4.40;;;2.90;;
48554;SDS011;34336;48.270;16.716;2022-09-21T02:58:40;5.88;;;3.17;;
48554;SDS011;34336;48.270;16.716;2022-09-21T03:01:13;4.80;;;3.20;;
48554;SDS011;34336;48.270;16.716;2022-09-21T03:03:41;3.53;;;3.08;;
48554;SDS011;34336;48.270;16.716;2022-09-21T03:06:08;4.75;;;2.90;;
48554;SDS011;34336;48.270;16.716;2022-09-21T03:08:35;5.10;;;2.83;;
48554;SDS011;34336;48.270;16.716;2022-09-21T03:11:01;6.32;;;3.30;;
48554;SDS011;34336;48.270;16.716;2022-09-21T03:13:28;4.53;;;2.92;;
48554;SDS011;34336;48.270;16.716;2022-09-21T03:15:59;4.13;;;2.92;;
48554;SDS011;34336;48.270;16.716;2022-09-21T03:18:27;4.10;;;2.80;;
48554;SDS011;34336;48.270;16.716;2022-09-21T03:20:54;5.13;;;3.05;;
48554;SDS011;34336;48.270;16.716;2022-09-21T03:23:21;4.40;;;2.97;;
48554;SDS011;34336;48.270;16.716;2022-09-21T03:25:48;4.50;;;3.22;;
48554;SDS011;34336;48.270;16.716;2022-09-21T03:28:17;4.88;;;3.10;;
48554;SDS011;34336;48.270;16.716;2022-09-21T03:30:45;4.07;;;3.08;;
48554;SDS011;34336;48.270;16.716;2022-09-21T03:33:13;4.88;;;3.10;;
48554;SDS011;34336;48.270;16.716;2022-09-21T03:35:39;4.78;;;2.90;;
48554;SDS011;34336;48.270;16.716;2022-09-21T03:38:06;4.18;;;2.80;;
48554;SDS011;34336;48.270;16.716;2022-09-21T03:40:33;4.50;;;3.25;;
48554;SDS011;34336;48.270;16.716;2022-09-21T03:43:00;4.10;;;3.00;;
48554;SDS011;34336;48.270;16.716;2022-09-21T03:45:27;4.68;;;3.30;;
48554;SDS011;34336;48.270;16.716;2022-09-21T03:47:57;5.03;;;3.10;;
48554;SDS011;34336;48.270;16.716;2022-09-21T03:50:26;4.15;;;2.78;;
48554;SDS011;34336;48.270;16.716;2022-09-21T03:52:54;5.05;;;2.88;;
48554;SDS011;34336;48.270;16.716;2022-09-21T03:55:21;4.82;;;3.20;;
48554;SDS011;34336;48.270;16.716;2022-09-21T03:57:48;4.50;;;2.80;;
48554;SDS011;34336;48.270;16.716;2022-09-21T04:00:16;3.95;;;3.17;;
48554;SDS011;34336;48.270;16.716;2022-09-21T04:02:43;7.65;;;3.10;;
48554;SDS011;34336;48.270;16.716;2022-09-21T04:05:11;5.70;;;3.15;;
48554;SDS011;34336;48.270;16.716;2022-09-21T04:07:40;4.60;;;3.40;;
48554;SDS011;34336;48.270;16.716;2022-09-21T04:10:09;3.88;;;2.88;;
48554;SDS011;34336;48.270;16.716;2022-09-21T04:12:41;4.82;;;3.35;;
48554;SDS011;34336;48.270;16.716;2022-09-21T04:15:16;5.57;;;3.03;;
48554;SDS011;34336;48.270;16.716;2022-09-21T04:17:45;4.53;;;2.90;;
48554;SDS011;34336;48.270;16.716;2022-09-21T04:20:12;3.97;;;3.30;;
48554;SDS011;34336;48.270;16.716;2022-09-21T04:22:39;5.03;;;3.10;;
48554;SDS011;34336;48.270;16.716;2022-09-21T04:25:09;7.20;;;3.22;;
48554;SDS011;34336;48.270;16.716;2022-09-21T04:27:36;4.82;;;3.10;;
48554;SDS011;34336;48.270;16.716;2022-09-21T04:30:03;4.47;;;3.22;;
48554;SDS011;34336;48.270;16.716;2022-09-21T04:32:31;3.75;;;3.20;;
48554;SDS011;34336;48.270;16.716;2022-09-21T04:34:58;5.47;;;3.50;;
48554;SDS011;34336;48.270;16.716;2022-09-21T04:37:25;6.30;;;3.50;;
48554;SDS011;34336;48.270;16.716;2022-09-21T04:39:51;7.30;;;3.90;;
48554;SDS011;34336;48.270;16.716;2022-09-21T04:42:18;4.75;;;3.30;;
48554;SDS011;34336;48.270;16.716;2022-09-21T04:44:45;5.38;;;4.03;;
48554;SDS011;34336;48.270;16.716;2022-09-21T04:47:12;6.13;;;3.53;;
48554;SDS011;34336;48.270;16.716;2022-09-21T04:49:38;5.38;;;3.38;;
48554;SDS011;34336;48.270;16.716;2022-09-21T04:52:05;6.10;;;3.35;;
48554;SDS011;34336;48.270;16.716;2022-09-21T04:54:32;4.15;;;3.30;;
48554;SDS011;34336;48.270;16.716;2022-09-21T04:56:58;5.15;;;3.53;;
48554;SDS011;34336;48.270;16.716;2022-09-21T04:59:25;5.30;;;3.25;;
48554;SDS011;34336;48.270;16.716;2022-09-21T05:01:52;10.70;;;6.82;;
48554;SDS011;34336;48.270;16.716;2022-09-21T05:04:18;8.40;;;6.63;;
48554;SDS011;34336;48.270;16.716;2022-09-21T05:06:45;8.35;;;3.63;;
48554;SDS011;34336;48.270;16.716;2022-09-21T05:09:12;2.83;;;2.15;;
48554;SDS011;34336;48.270;16.716;2022-09-21T05:11:58;7.38;;;3.70;;
48554;SDS011;34336;48.270;16.716;2022-09-21T05:14:24;3.97;;;2.10;;
48554;SDS011;34336;48.270;16.716;2022-09-21T05:16:51;2.45;;;2.13;;
48554;SDS011;34336;48.270;16.716;2022-09-21T05:19:18;1.90;;;1.60;;
48554;SDS011;34336;48.270;16.716;2022-09-21T05:21:45;2.50;;;1.90;;
48554;SDS011;34336;48.270;16.716;2022-09-21T05:24:11;2.08;;;1.67;;
48554;SDS011;34336;48.270;16.716;2022-09-21T05:26:38;4.65;;;1.75;;
48554;SDS011;34336;48.270;16.716;2022-09-21T05:29:05;3.28;;;1.90;;
48554;SDS011;34336;48.270;16.716;2022-09-21T05:31:40;1.52;;;1.38;;
48554;SDS011;34336;48.270;16.716;2022-09-21T05:36:57;3.58;;;1.90;;
48554;SDS011;34336;48.270;16.716;2022-09-21T05:39:26;2.10;;;1.77;;
48554;SDS011;34336;48.270;16.716;2022-09-21T05:41:53;1.88;;;1.63;;
48554;SDS011;34336;48.270;16.716;2022-09-21T05:44:21;3.10;;;1.67;;
48554;SDS011;34336;48.270;16.716;2022-09-21T05:47:05;3.78;;;1.73;;
48554;SDS011;34336;48.270;16.716;2022-09-21T06:00:21;2.30;;;1.83;;
48554;SDS011;34336;48.270;16.716;2022-09-21T06:03:11;2.45;;;1.70;;
48554;SDS011;34336;48.270;16.716;2022-09-21T06:05:46;4.38;;;2.05;;
48554;SDS011;34336;48.270;16.716;2022-09-21T06:08:12;1.83;;;1.70;;
48554;SDS011;34336;48.270;16.716;2022-09-21T06:10:39;2.60;;;1.88;;
48554;SDS011;34336;48.270;16.716;2022-09-21T06:13:06;2.97;;;2.40;;
48554;SDS011;34336;48.270;16.716;2022-09-21T06:15:33;2.17;;;1.60;;
48554;SDS011;34336;48.270;16.716;2022-09-21T06:18:04;2.25;;;1.73;;
48554;SDS011;34336;48.270;16.716;2022-09-21T06:20:31;3.35;;;2.10;;
48554;SDS011;34336;48.270;16.716;2022-09-21T06:22:59;3.70;;;1.98;;
48554;SDS011;34336;48.270;16.716;2022-09-21T06:25:27;2.80;;;1.92;;
48554;SDS011;34336;48.270;16.716;2022-09-21T06:27:53;3.08;;;2.13;;
48554;SDS011;34336;48.270;16.716;2022-09-21T06:30:20;4.72;;;2.25;;
48554;SDS011;34336;48.270;16.716;2022-09-21T06:32:47;2.75;;;2.17;;
48554;SDS011;34336;48.270;16.716;2022-09-21T06:35:14;3.00;;;2.25;;
48554;SDS011;34336;48.270;16.716;2022-09-21T06:37:40;2.72;;;2.08;;
48554;SDS011;34336;48.270;16.716;2022-09-21T06:40:08;2.63;;;2.22;;
48554;SDS011;34336;48.270;16.716;2022-09-21T06:42:35;2.15;;;1.77;;
48554;SDS011;34336;48.270;16.716;2022-09-21T06:45:02;3.78;;;2.05;;
48554;SDS011;34336;48.270;16.716;2022-09-21T06:47:29;2.70;;;2.00;;
48554;SDS011;34336;48.270;16.716;2022-09-21T06:49:55;4.82;;;2.42;;
48554;SDS011;34336;48.270;16.716;2022-09-21T06:52:22;4.15;;;1.95;;
48554;SDS011;34336;48.270;16.716;2022-09-21T06:54:49;2.90;;;2.15;;
48554;SDS011;34336;48.270;16.716;2022-09-21T06:57:15;2.95;;;2.35;;
48554;SDS011;34336;48.270;16.716;2022-09-21T06:59:43;3.90;;;2.28;;
48554;SDS011;34336;48.270;16.716;2022-09-21T07:02:09;2.72;;;2.03;;
48554;SDS011;34336;48.270;16.716;2022-09-21T07:04:38;3.33;;;2.10;;
48554;SDS011;34336;48.270;16.716;2022-09-21T07:07:04;3.60;;;2.00;;
48554;SDS011;34336;48.270;16.716;2022-09-21T07:09:31;2.88;;;2.40;;
48554;SDS011;34336;48.270;16.716;2022-09-21T07:12:18;3.42;;;2.15;;
48554;SDS011;34336;48.270;16.716;2022-09-21T07:14:45;2.30;;;2.08;;
48554;SDS011;34336;48.270;16.716;2022-09-21T07:17:11;2.90;;;2.25;;
48554;SDS011;34336;48.270;16.716;2022-09-21T07:19:41;4.43;;;2.38;;
48554;SDS011;34336;48.270;16.716;2022-09-21T07:22:07;3.20;;;2.17;;
48554;SDS011;34336;48.270;16.716;2022-09-21T07:24:34;3.20;;;2.00;;
48554;SDS011;34336;48.270;16.716;2022-09-21T07:27:01;3.45;;;2.70;;
48554;SDS011;34336;48.270;16.716;2022-09-21T07:29:27;4.95;;;2.92;;
48554;SDS011;34336;48.270;16.716;2022-09-21T07:31:54;3.47;;;2.72;;
48554;SDS011;34336;48.270;16.716;2022-09-21T07:34:21;3.83;;;2.75;;
48554;SDS011;34336;48.270;16.716;2022-09-21T07:36:48;4.35;;;2.25;;
48554;SDS011;34336;48.270;16.716;2022-09-21T07:39:14;5.82;;;2.75;;
48554;SDS011;34336;48.270;16.716;2022-09-21T07:41:41;3.88;;;2.60;;
48554;SDS011;34336;48.270;16.716;2022-09-21T07:44:08;3.45;;;2.55;;
48554;SDS011;34336;48.270;16.716;2022-09-21T07:46:34;4.75;;;2.85;;
48554;SDS011;34336;48.270;16.716;2022-09-21T07:49:02;4.38;;;2.70;;
48554;SDS011;34336;48.270;16.716;2022-09-21T07:51:30;3.08;;;2.55;;
48554;SDS011;34336;48.270;16.716;2022-09-21T07:53:57;4.13;;;2.97;;
48554;SDS011;34336;48.270;16.716;2022-09-21T07:56:24;3.70;;;2.63;;
48554;SDS011;34336;48.270;16.716;2022-09-21T07:58:51;4.07;;;3.28;;
48554;SDS011;34336;48.270;16.716;2022-09-21T08:01:34;4.25;;;3.22;;
48554;SDS011;34336;48.270;16.716;2022-09-21T08:04:08;4.75;;;2.97;;
48554;SDS011;34336;48.270;16.716;2022-09-21T08:06:36;3.77;;;3.00;;
48554;SDS011;34336;48.270;16.716;2022-09-21T08:09:05;3.40;;;2.50;;
48554;SDS011;34336;48.270;16.716;2022-09-21T08:11:32;3.70;;;2.92;;
48554;SDS011;34336;48.270;16.716;2022-09-21T08:14:00;4.03;;;2.90;;
48554;SDS011;34336;48.270;16.716;2022-09-21T08:16:28;4.88;;;2.67;;
48554;SDS011;34336;48.270;16.716;2022-09-21T08:18:56;3.75;;;3.00;;
48554;SDS011;34336;48.270;16.716;2022-09-21T08:21:23;4.45;;;2.60;;
48554;SDS011;34336;48.270;16.716;2022-09-21T08:23:50;4.18;;;2.72;;
48554;SDS011;34336;48.270;16.716;2022-09-21T08:26:17;4.63;;;2.38;;
48554;SDS011;34336;48.270;16.716;2022-09-21T08:28:46;2.78;;;2.38;;
48554;SDS011;34336;48.270;16.716;2022-09-21T08:31:15;3.28;;;2.38;;
48554;SDS011;34336;48.270;16.716;2022-09-21T08:33:46;3.60;;;2.80;;
48554;SDS011;34336;48.270;16.716;2022-09-21T08:36:15;3.17;;;2.30;;
48554;SDS011;34336;48.270;16.716;2022-09-21T08:38:42;3.60;;;2.40;;
48554;SDS011;34336;48.270;16.716;2022-09-21T08:41:12;3.92;;;2.35;;
48554;SDS011;34336;48.270;16.716;2022-09-21T08:43:43;3.40;;;2.22;;
48554;SDS011;34336;48.270;16.716;2022-09-21T08:46:16;3.17;;;2.42;;
48554;SDS011;34336;48.270;16.716;2022-09-21T08:48:55;3.10;;;2.03;;
48554;SDS011;34336;48.270;16.716;2022-09-21T08:51:35;3.47;;;2.22;;
48554;SDS011;34336;48.270;16.716;2022-09-21T08:54:26;3.75;;;2.25;;
48554;SDS011;34336;48.270;16.716;2022-09-21T08:56:54;3.85;;;2.13;;
48554;SDS011;34336;48.270;16.716;2022-09-21T08:59:36;5.00;;;2.78;;
48554;SDS011;34336;48.270;16.716;2022-09-21T09:05:03;2.95;;;2.20;;
48554;SDS011;34336;48.270;16.716;2022-09-21T09:16:32;3.63;;;2.50;;
48554;SDS011;34336;48.270;16.716;2022-09-21T09:19:23;3.50;;;2.63;;
48554;SDS011;34336;48.270;16.716;2022-09-21T09:22:05;4.40;;;2.85;;
48554;SDS011;34336;48.270;16.716;2022-09-21T09:24:39;3.78;;;2.60;;
48554;SDS011;34336;48.270;16.716;2022-09-21T09:27:14;2.97;;;2.45;;
48554;SDS011;34336;48.270;16.716;2022-09-21T09:29:59;3.28;;;2.70;;
48554;SDS011;34336;48.270;16.716;2022-09-21T09:35:35;3.50;;;2.30;;
48554;SDS011;34336;48.270;16.716;2022-09-21T09:38:18;3.72;;;2.25;;
48554;SDS011;34336;48.270;16.716;2022-09-21T09:52:17;3.03;;;1.83;;
48554;SDS011;34336;48.270;16.716;2022-09-21T09:54:43;2.78;;;1.55;;
48554;SDS011;34336;48.270;16.716;2022-09-21T09:57:10;2.65;;;1.73;;
48554;SDS011;34336;48.270;16.716;2022-09-21T10:02:20;2.03;;;1.63;;
48554;SDS011;34336;48.270;16.716;2022-09-21T10:07:35;1.50;;;1.40;;
48554;SDS011;34336;48.270;16.716;2022-09-21T10:10:52;1.77;;;1.48;;
48554;SDS011;34336;48.270;16.716;2022-09-21T10:13:05;2.47;;;1.30;;
48554;SDS011;34336;48.270;16.716;2022-09-21T10:15:37;1.33;;;1.10;;
48554;SDS011;34336;48.270;16.716;2022-09-21T10:21:07;2.40;;;1.38;;
48554;SDS011;34336;48.270;16.716;2022-09-21T10:23:41;1.75;;;1.63;;
48554;SDS011;34336;48.270;16.716;2022-09-21T10:26:13;1.42;;;1.05;;
48554;SDS011;34336;48.270;16.716;2022-09-21T10:31:27;2.10;;;1.30;;
48554;SDS011;34336;48.270;16.716;2022-09-21T10:34:05;1.92;;;1.02;;
48554;SDS011;34336;48.270;16.716;2022-09-21T10:36:38;1.75;;;1.10;;
48554;SDS011;34336;48.270;16.716;2022-09-21T10:39:10;1.40;;;1.05;;
48554;SDS011;34336;48.270;16.716;2022-09-21T10:41:49;3.65;;;1.60;;
48554;SDS011;34336;48.270;16.716;2022-09-21T10:44:22;1.30;;;1.20;;
48554;SDS011;34336;48.270;16.716;2022-09-21T10:46:52;2.22;;;1.45;;
48554;SDS011;34336;48.270;16.716;2022-09-21T10:49:26;2.25;;;1.30;;
48554;SDS011;34336;48.270;16.716;2022-09-21T10:51:55;2.28;;;1.42;;
48554;SDS011;34336;48.270;16.716;2022-09-21T10:54:28;1.88;;;1.50;;
48554;SDS011;34336;48.270;16.716;2022-09-21T10:56:59;2.08;;;1.13;;
48554;SDS011;34336;48.270;16.716;2022-09-21T10:59:32;2.30;;;1.13;;
48554;SDS011;34336;48.270;16.716;2022-09-21T11:02:22;2.83;;;1.15;;
48554;SDS011;34336;48.270;16.716;2022-09-21T11:04:52;2.30;;;0.90;;
48554;SDS011;34336;48.270;16.716;2022-09-21T11:07:32;2.13;;;1.20;;
48554;SDS011;34336;48.270;16.716;2022-09-21T11:21:00;2.05;;;1.20;;
48554;SDS011;34336;48.270;16.716;2022-09-21T11:23:35;1.70;;;1.30;;
48554;SDS011;34336;48.270;16.716;2022-09-21T11:29:16;1.93;;;1.40;;
48554;SDS011;34336;48.270;16.716;2022-09-21T11:38:12;2.17;;;1.10;;
48554;SDS011;34336;48.270;16.716;2022-09-21T11:43:54;2.15;;;1.50;;
48554;SDS011;34336;48.270;16.716;2022-09-21T11:45:57;1.98;;;1.52;;
48554;SDS011;34336;48.270;16.716;2022-09-21T11:54:34;1.83;;;1.50;;
48554;SDS011;34336;48.270;16.716;2022-09-21T12:21:23;2.08;;;1.08;;
48554;SDS011;34336;48.270;16.716;2022-09-21T12:23:55;1.37;;;0.90;;
48554;SDS011;34336;48.270;16.716;2022-09-21T12:26:31;1.10;;;1.00;;
48554;SDS011;34336;48.270;16.716;2022-09-21T12:29:05;2.30;;;1.20;;
48554;SDS011;34336;48.270;16.716;2022-09-21T12:31:57;1.55;;;1.17;;
48554;SDS011;34336;48.270;16.716;2022-09-21T12:34:34;1.40;;;1.00;;
48554;SDS011;34336;48.270;16.716;2022-09-21T12:39:47;4.03;;;1.60;;
48554;SDS011;34336;48.270;16.716;2022-09-21T12:42:29;1.75;;;1.20;;
48554;SDS011;34336;48.270;16.716;2022-09-21T12:45:02;1.20;;;1.10;;
48554;SDS011;34336;48.270;16.716;2022-09-21T12:50:05;1.10;;;1.00;;
48554;SDS011;34336;48.270;16.716;2022-09-21T12:53:01;2.65;;;1.20;;
48554;SDS011;34336;48.270;16.716;2022-09-21T12:58:07;2.15;;;0.90;;
48554;SDS011;34336;48.270;16.716;2022-09-21T13:08:48;2.53;;;1.08;;
48554;SDS011;34336;48.270;16.716;2022-09-21T13:11:16;1.02;;;0.93;;
48554;SDS011;34336;48.270;16.716;2022-09-21T13:13:47;1.73;;;1.05;;
48554;SDS011;34336;48.270;16.716;2022-09-21T13:18:53;1.20;;;0.95;;
48554;SDS011;34336;48.270;16.716;2022-09-21T13:21:41;1.27;;;0.90;;
48554;SDS011;34336;48.270;16.716;2022-09-21T13:24:25;0.68;;;0.68;;
48554;SDS011;34336;48.270;16.716;2022-09-21T13:26:56;1.05;;;0.73;;
48554;SDS011;34336;48.270;16.716;2022-09-21T13:29:32;1.02;;;0.93;;
48554;SDS011;34336;48.270;16.716;2022-09-21T13:34:40;2.15;;;0.95;;
48554;SDS011;34336;48.270;16.716;2022-09-21T13:39:41;1.52;;;1.00;;
48554;SDS011;34336;48.270;16.716;2022-09-21T13:44:53;1.08;;;0.98;;
48554;SDS011;34336;48.270;16.716;2022-09-21T13:47:31;1.30;;;1.20;;
48554;SDS011;34336;48.270;16.716;2022-09-21T13:50:00;1.27;;;1.10;;
48554;SDS011;34336;48.270;16.716;2022-09-21T13:52:37;2.47;;;1.45;;
48554;SDS011;34336;48.270;16.716;2022-09-21T13:55:18;1.30;;;1.10;;
48554;SDS011;34336;48.270;16.716;2022-09-21T13:57:47;2.30;;;1.00;;
48554;SDS011;34336;48.270;16.716;2022-09-21T14:00:35;2.38;;;1.13;;
48554;SDS011;34336;48.270;16.716;2022-09-21T14:03:17;2.55;;;1.63;;
48554;SDS011;34336;48.270;16.716;2022-09-21T14:06:05;2.75;;;1.23;;
48554;SDS011;34336;48.270;16.716;2022-09-21T14:14:22;1.55;;;1.40;;
48554;SDS011;34336;48.270;16.716;2022-09-21T14:16:58;2.20;;;1.60;;
48554;SDS011;34336;48.270;16.716;2022-09-21T14:32:52;1.70;;;1.30;;
48554;SDS011;34336;48.270;16.716;2022-09-21T14:35:31;1.70;;;1.55;;
48554;SDS011;34336;48.270;16.716;2022-09-21T14:38:04;1.65;;;1.42;;
48554;SDS011;34336;48.270;16.716;2022-09-21T14:40:50;2.72;;;1.45;;
48554;SDS011;34336;48.270;16.716;2022-09-21T14:43:22;2.70;;;1.20;;
48554;SDS011;34336;48.270;16.716;2022-09-21T14:51:29;2.08;;;1.27;;
48554;SDS011;34336;48.270;16.716;2022-09-21T14:54:20;2.13;;;1.50;;
48554;SDS011;34336;48.270;16.716;2022-09-21T15:02:18;2.95;;;1.50;;
48554;SDS011;34336;48.270;16.716;2022-09-21T15:04:56;2.92;;;1.70;;
48554;SDS011;34336;48.270;16.716;2022-09-21T15:07:45;2.35;;;1.58;;
48554;SDS011;34336;48.270;16.716;2022-09-21T15:13:28;2.00;;;1.60;;
48554;SDS011;34336;48.270;16.716;2022-09-21T15:19:09;2.53;;;1.85;;
48554;SDS011;34336;48.270;16.716;2022-09-21T15:21:43;2.20;;;2.00;;
48554;SDS011;34336;48.270;16.716;2022-09-21T15:26:50;3.75;;;2.35;;
48554;SDS011;34336;48.270;16.716;2022-09-21T15:29:23;2.10;;;1.63;;
48554;SDS011;34336;48.270;16.716;2022-09-21T15:31:52;3.50;;;2.08;;
48554;SDS011;34336;48.270;16.716;2022-09-21T15:34:20;2.33;;;2.10;;
48554;SDS011;34336;48.270;16.716;2022-09-21T15:36:48;2.03;;;1.80;;
48554;SDS011;34336;48.270;16.716;2022-09-21T15:39:24;1.52;;;1.42;;
48554;SDS011;34336;48.270;16.716;2022-09-21T15:44:35;1.80;;;1.42;;
48554;SDS011;34336;48.270;16.716;2022-09-21T15:47:07;1.50;;;1.40;;
48554;SDS011;34336;48.270;16.716;2022-09-21T15:49:38;2.03;;;1.83;;
48554;SDS011;34336;48.270;16.716;2022-09-21T15:54:45;1.80;;;1.60;;
48554;SDS011;34336;48.270;16.716;2022-09-21T15:57:38;2.03;;;1.83;;
48554;SDS011;34336;48.270;16.716;2022-09-21T16:02:40;1.60;;;1.50;;
48554;SDS011;34336;48.270;16.716;2022-09-21T16:05:16;1.67;;;1.58;;
48554;SDS011;34336;48.270;16.716;2022-09-21T16:07:47;2.35;;;1.80;;
48554;SDS011;34336;48.270;16.716;2022-09-21T16:13:03;2.60;;;1.70;;
48554;SDS011;34336;48.270;16.716;2022-09-21T16:16:01;2.63;;;1.55;;
48554;SDS011;34336;48.270;16.716;2022-09-21T16:21:22;2.13;;;1.55;;
48554;SDS011;34336;48.270;16.716;2022-09-21T16:23:54;1.60;;;1.50;;
48554;SDS011;34336;48.270;16.716;2022-09-21T16:28:55;2.33;;;1.70;;
48554;SDS011;34336;48.270;16.716;2022-09-21T16:31:43;2.50;;;1.50;;
48554;SDS011;34336;48.270;16.716;2022-09-21T16:36:43;1.60;;;1.42;;
48554;SDS011;34336;48.270;16.716;2022-09-21T16:39:11;2.70;;;1.60;;
48554;SDS011;34336;48.270;16.716;2022-09-21T16:41:42;1.50;;;1.38;;
48554;SDS011;34336;48.270;16.716;2022-09-21T16:44:21;2.42;;;1.70;;
48554;SDS011;34336;48.270;16.716;2022-09-21T16:46:55;3.10;;;2.10;;
48554;SDS011;34336;48.270;16.716;2022-09-21T16:49:25;9.48;;;5.15;;
48554;SDS011;34336;48.270;16.716;2022-09-21T16:51:56;12.03;;;7.00;;
48554;SDS011;34336;48.270;16.716;2022-09-21T16:54:23;3.45;;;2.25;;
48554;SDS011;34336;48.270;16.716;2022-09-21T16:56:54;3.90;;;2.55;;
48554;SDS011;34336;48.270;16.716;2022-09-21T16:59:23;3.08;;;2.38;;
48554;SDS011;34336;48.270;16.716;2022-09-21T17:01:54;2.40;;;1.90;;
48554;SDS011;34336;48.270;16.716;2022-09-21T17:04:25;2.70;;;1.80;;
48554;SDS011;34336;48.270;16.716;2022-09-21T17:06:54;1.80;;;1.60;;
48554;SDS011;34336;48.270;16.716;2022-09-21T17:11:59;1.90;;;1.70;;
48554;SDS011;34336;48.270;16.716;2022-09-21T17:14:30;2.72;;;2.00;;
48554;SDS011;34336;48.270;16.716;2022-09-21T17:19:45;3.38;;;1.95;;
48554;SDS011;34336;48.270;16.716;2022-09-21T17:22:15;2.20;;;1.75;;
48554;SDS011;34336;48.270;16.716;2022-09-21T17:24:43;2.38;;;1.75;;
48554;SDS011;34336;48.270;16.716;2022-09-21T17:27:21;3.13;;;1.90;;
48554;SDS011;34336;48.270;16.716;2022-09-21T17:29:49;1.93;;;1.80;;
48554;SDS011;34336;48.270;16.716;2022-09-21T17:32:17;3.85;;;1.75;;
48554;SDS011;34336;48.270;16.716;2022-09-21T17:35:31;1.67;;;1.57;;
48554;SDS011;34336;48.270;16.716;2022-09-21T17:37:44;2.50;;;2.00;;
48554;SDS011;34336;48.270;16.716;2022-09-21T17:40:11;4.30;;;1.80;;
48554;SDS011;34336;48.270;16.716;2022-09-21T17:42:39;2.78;;;2.00;;
48554;SDS011;34336;48.270;16.716;2022-09-21T17:48:03;3.05;;;2.00;;
48554;SDS011;34336;48.270;16.716;2022-09-21T17:50:30;3.10;;;2.08;;
48554;SDS011;34336;48.270;16.716;2022-09-21T17:52:57;3.15;;;1.67;;
48554;SDS011;34336;48.270;16.716;2022-09-21T17:55:46;2.60;;;2.00;;
48554;SDS011;34336;48.270;16.716;2022-09-21T18:01:35;2.97;;;2.15;;
48554;SDS011;34336;48.270;16.716;2022-09-21T18:04:06;3.35;;;2.70;;
48554;SDS011;34336;48.270;16.716;2022-09-21T18:06:33;3.08;;;2.30;;
48554;SDS011;34336;48.270;16.716;2022-09-21T18:09:00;3.28;;;2.40;;
48554;SDS011;34336;48.270;16.716;2022-09-21T18:22:57;4.60;;;2.60;;
48554;SDS011;34336;48.270;16.716;2022-09-21T18:25:49;4.97;;;3.40;;
48554;SDS011;34336;48.270;16.716;2022-09-21T18:28:34;3.70;;;2.88;;
48554;SDS011;34336;48.270;16.716;2022-09-21T18:39:21;4.78;;;3.53;;
48554;SDS011;34336;48.270;16.716;2022-09-21T18:42:20;5.32;;;2.95;;
48554;SDS011;34336;48.270;16.716;2022-09-21T18:45:27;4.78;;;3.05;;
48554;SDS011;34336;48.270;16.716;2022-09-21T18:50:47;4.82;;;3.38;;
48554;SDS011;34336;48.270;16.716;2022-09-21T18:53:25;5.85;;;3.55;;
48554;SDS011;34336;48.270;16.716;2022-09-21T18:56:18;4.55;;;3.85;;
48554;SDS011;34336;48.270;16.716;2022-09-21T18:58:45;4.38;;;3.47;;
48554;SDS011;34336;48.270;16.716;2022-09-21T19:01:12;5.28;;;4.05;;
48554;SDS011;34336;48.270;16.716;2022-09-21T19:03:41;5.53;;;3.65;;
48554;SDS011;34336;48.270;16.716;2022-09-21T19:26:15;2.88;;;2.33;;
48554;SDS011;34336;48.270;16.716;2022-09-21T19:31:53;3.55;;;2.55;;